createdAt,value
2023-01-02T00:02:07.359Z,3.58
2023-01-02T00:07:08.872Z,3.45
2023-01-02T00:12:10.578Z,3.95
2023-01-02T00:17:12.023Z,4.63
2023-01-02T00:22:13.445Z,3.92
2023-01-02T00:27:15.297Z,4.43
2023-01-02T00:32:16.751Z,4.30
2023-01-02T00:37:18.164Z,4.45
2023-01-02T00:42:19.617Z,4.68
2023-01-02T00:47:21.149Z,4.93
2023-01-02T00:52:22.610Z,5.35
2023-01-02T00:57:24.118Z,4.85
2023-01-02T01:02:25.663Z,5.00
2023-01-02T01:07:29.114Z,5.25
2023-01-02T01:12:31.100Z,5.13
2023-01-02T01:17:33.053Z,5.22
2023-01-02T01:22:34.546Z,6.68
2023-01-02T01:27:36.097Z,5.63
2023-01-02T01:32:37.809Z,5.30
2023-01-02T01:37:40.010Z,5.53
2023-01-02T01:42:41.541Z,4.78
2023-01-02T01:47:52.453Z,5.88
2023-01-02T01:53:07.011Z,7.03
2023-01-02T01:58:12.250Z,6.90
2023-01-02T02:03:18.612Z,6.28
2023-01-02T02:08:31.453Z,6.03
2023-01-02T02:13:34.072Z,6.78
2023-01-02T02:18:44.497Z,6.50
2023-01-02T02:23:54.721Z,6.35
2023-01-02T02:29:14.986Z,6.57
2023-01-02T02:34:29.336Z,6.35
2023-01-02T02:45:16.937Z,6.82
2023-01-02T02:50:32.152Z,7.70
2023-01-02T02:55:41.362Z,7.10
2023-01-02T03:00:42.802Z,7.88
2023-01-02T03:05:53.320Z,7.88
2023-01-02T03:11:01.371Z,7.25
2023-01-02T03:16:19.948Z,9.23
2023-01-02T03:21:33.238Z,8.35
2023-01-02T03:26:37.871Z,7.30
2023-01-02T03:31:40.860Z,7.40
2023-01-02T03:36:45.717Z,7.63
2023-01-02T03:42:01.294Z,7.03
2023-01-02T03:47:25.514Z,6.38
2023-01-02T03:57:43.339Z,6.47
2023-01-02T04:02:49.334Z,7.63
2023-01-02T04:08:02.745Z,7.28
2023-01-02T04:13:13.080Z,6.80
2023-01-02T04:18:31.968Z,8.57
2023-01-02T04:23:42.116Z,8.13
2023-01-02T04:28:43.752Z,8.68
2023-01-02T04:33:50.987Z,9.10
2023-01-02T04:38:52.494Z,8.63
2023-01-02T04:43:55.405Z,9.50
2023-01-02T04:48:57.228Z,10.10
2023-01-02T04:53:58.649Z,11.57
2023-01-02T04:59:00.084Z,12.82
2023-01-02T05:04:01.543Z,13.02
2023-01-02T05:09:03.044Z,13.57
2023-01-02T05:14:07.704Z,13.48
2023-01-02T05:19:09.700Z,15.55
2023-01-02T05:24:11.347Z,14.93
2023-01-02T05:29:12.951Z,15.10
2023-01-02T05:34:15.925Z,15.68
2023-01-02T05:39:17.430Z,14.35
2023-01-02T05:44:19.055Z,14.32
2023-01-02T05:49:20.545Z,12.85
2023-01-02T05:54:22.082Z,13.30
2023-01-02T05:59:23.595Z,13.35
2023-01-02T06:04:25.089Z,13.10
2023-01-02T06:09:26.569Z,12.18
2023-01-02T06:14:27.983Z,14.10
2023-01-02T06:19:29.764Z,13.63
2023-01-02T06:24:31.306Z,15.05
2023-01-02T06:29:32.804Z,14.43
2023-01-02T06:34:34.239Z,14.60
2023-01-02T06:39:35.723Z,16.42
2023-01-02T06:44:37.294Z,16.27
2023-01-02T06:49:38.721Z,17.00
2023-01-02T06:54:40.212Z,16.17
2023-01-02T06:59:41.714Z,15.43
2023-01-02T07:04:43.235Z,16.60
2023-01-02T07:09:44.742Z,15.20
2023-01-02T07:14:46.303Z,15.85
2023-01-02T07:19:53.239Z,15.55
2023-01-02T07:24:55.965Z,15.52
2023-01-02T07:29:57.659Z,17.83
2023-01-02T07:34:59.093Z,18.77
2023-01-02T07:40:00.515Z,20.33
2023-01-02T07:45:02.037Z,18.80
2023-01-02T07:50:03.801Z,18.27
2023-01-02T07:55:05.874Z,18.50
2023-01-02T08:00:08.031Z,16.80
2023-01-02T08:05:09.995Z,17.17
2023-01-02T08:10:12.371Z,18.27
2023-01-02T08:15:13.926Z,17.67
2023-01-02T08:20:15.683Z,18.00
2023-01-02T08:25:17.270Z,16.73
2023-01-02T08:30:18.796Z,15.82
2023-01-02T08:35:36.882Z,16.98
2023-01-02T08:40:39.749Z,17.27
2023-01-02T08:45:41.183Z,16.10
2023-01-02T08:50:42.701Z,16.48
2023-01-02T08:55:44.558Z,17.92
2023-01-02T09:00:46.050Z,16.23
2023-01-02T09:05:47.618Z,12.55
2023-01-02T09:10:49.189Z,13.38
2023-01-02T09:15:50.729Z,11.60
2023-01-02T09:20:52.226Z,8.60
2023-01-02T09:25:58.544Z,9.27
2023-01-02T09:31:00.315Z,7.85
2023-01-02T09:36:07.410Z,7.20
2023-01-02T09:41:22.682Z,6.22
2023-01-02T09:46:43.762Z,5.35
2023-01-02T09:51:45.883Z,6.20
2023-01-02T09:56:54.584Z,5.35
2023-01-02T10:02:10.829Z,5.32
2023-01-02T10:07:22.158Z,5.10
2023-01-02T10:12:52.221Z,4.40
2023-01-02T10:18:00.635Z,5.00
2023-01-02T10:23:18.147Z,4.60
2023-01-02T10:28:49.233Z,4.20
2023-01-02T10:33:57.434Z,3.17
2023-01-02T10:39:01.124Z,3.25
2023-01-02T10:44:07.923Z,4.00
2023-01-02T10:49:10.895Z,4.45
2023-01-02T10:54:12.350Z,4.70
2023-01-02T10:59:21.058Z,4.38
2023-01-02T11:04:30.417Z,3.97
2023-01-02T11:09:35.865Z,4.88
2023-01-02T11:14:38.280Z,6.00
2023-01-02T11:19:43.216Z,5.20
2023-01-02T11:25:07.789Z,3.95
2023-01-02T11:30:35.494Z,4.15
2023-01-02T11:35:55.284Z,4.05
2023-01-02T11:40:59.945Z,5.55
2023-01-02T11:51:17.758Z,4.03
2023-01-02T11:56:30.605Z,3.85
2023-01-02T12:01:47.759Z,3.30
2023-01-02T12:07:08.364Z,3.08
2023-01-02T12:12:21.465Z,2.40
2023-01-02T12:17:38.115Z,2.33
2023-01-02T12:22:50.344Z,2.15
2023-01-02T12:28:02.461Z,2.00
2023-01-02T12:33:21.888Z,2.85
2023-01-02T12:38:48.008Z,2.92
2023-01-02T12:44:17.884Z,2.75
2023-01-02T12:49:41.158Z,3.25
2023-01-02T12:55:06.839Z,2.67
2023-01-02T13:00:40.843Z,1.52
2023-01-02T13:05:47.857Z,1.98
2023-01-02T13:10:50.594Z,1.67
2023-01-02T13:16:02.240Z,2.53
2023-01-02T13:21:15.206Z,1.67
2023-01-02T13:26:20.356Z,2.13
2023-01-02T13:36:46.226Z,1.15
2023-01-02T13:42:11.415Z,2.00
2023-01-02T13:47:25.946Z,1.38
2023-01-02T13:52:31.647Z,1.55
2023-01-02T13:57:33.166Z,1.45
2023-01-02T14:02:34.843Z,1.60
2023-01-02T14:07:43.473Z,1.02
2023-01-02T14:12:53.827Z,1.05
2023-01-02T14:18:11.768Z,0.98
2023-01-02T14:23:27.780Z,1.30
2023-01-02T14:28:34.519Z,1.05
2023-01-02T14:33:36.402Z,1.48
2023-01-02T14:38:42.135Z,1.25
2023-01-02T14:43:45.985Z,1.20
2023-01-02T14:48:53.995Z,1.10
2023-01-02T14:54:00.241Z,0.85
2023-01-02T14:59:03.398Z,1.08
2023-01-02T15:04:24.599Z,1.48
2023-01-02T15:09:26.103Z,1.00
2023-01-02T15:14:27.609Z,1.50
2023-01-02T15:19:32.129Z,1.30
2023-01-02T15:24:34.545Z,1.85
2023-01-02T15:29:36.095Z,1.70
2023-01-02T15:34:37.612Z,2.22
2023-01-02T15:39:42.433Z,1.60
2023-01-02T15:45:02.797Z,2.15
2023-01-02T15:50:14.220Z,3.17
2023-01-02T15:55:17.839Z,3.50
2023-01-02T16:00:49.645Z,3.13
2023-01-02T16:05:55.080Z,2.72
2023-01-02T16:11:02.573Z,2.72
2023-01-02T16:16:15.795Z,3.67
2023-01-02T16:21:19.136Z,3.78
2023-01-02T16:26:23.348Z,3.63
2023-01-02T16:31:25.297Z,3.53
2023-01-02T16:36:29.027Z,3.63
2023-01-02T16:41:42.257Z,3.57
2023-01-02T16:46:46.641Z,3.53
2023-01-02T16:51:51.257Z,3.00
2023-01-02T17:01:54.579Z,3.10
2023-01-02T17:06:56.176Z,2.88
2023-01-02T17:12:01.050Z,2.13
2023-01-02T17:17:02.571Z,2.28
2023-01-02T17:22:04.758Z,2.40
2023-01-02T17:27:06.225Z,3.00
2023-01-02T17:32:07.931Z,3.22
2023-01-02T17:37:09.662Z,3.25
2023-01-02T17:42:11.621Z,3.92
2023-01-02T17:52:35.705Z,3.63
2023-01-02T17:57:39.233Z,4.57
2023-01-02T18:02:41.704Z,4.32
2023-01-02T18:07:43.245Z,6.90
2023-01-02T18:12:44.734Z,4.95
2023-01-02T18:17:46.565Z,3.67
2023-01-02T18:22:50.869Z,3.55
2023-01-02T18:33:15.780Z,4.50
2023-01-02T18:38:29.458Z,3.67
2023-01-02T18:43:35.593Z,4.50
2023-01-02T18:48:39.008Z,4.80
2023-01-02T18:53:48.995Z,5.68
2023-01-02T18:59:19.078Z,4.95
2023-01-02T19:04:34.602Z,5.03
2023-01-02T19:09:38.097Z,4.55
2023-01-02T19:14:42.004Z,5.28
2023-01-02T19:19:44.446Z,5.05
2023-01-02T19:24:46.312Z,4.88
2023-01-02T19:29:50.790Z,4.13
2023-01-02T19:34:54.180Z,5.97
2023-01-02T19:39:57.917Z,5.68
2023-01-02T19:45:08.961Z,4.80
2023-01-02T19:50:22.410Z,4.35
2023-01-02T19:55:23.851Z,4.70
2023-01-02T20:00:25.322Z,5.55
2023-01-02T20:05:28.590Z,4.22
2023-01-02T20:10:30.154Z,3.88
2023-01-02T20:15:31.637Z,3.85
2023-01-02T20:20:34.142Z,2.83
2023-01-02T20:25:35.599Z,4.72
2023-01-02T20:30:37.083Z,4.00
2023-01-02T20:35:38.618Z,3.75
2023-01-02T20:40:40.260Z,4.25
2023-01-02T20:45:41.786Z,4.25
2023-01-02T20:50:43.222Z,4.03
2023-01-02T20:55:44.864Z,3.28
2023-01-02T21:00:46.522Z,2.38
2023-01-02T21:05:47.986Z,2.20
2023-01-02T21:10:49.523Z,2.22
2023-01-02T21:15:54.791Z,1.90
2023-01-02T21:21:17.640Z,2.38
2023-01-02T21:26:21.683Z,1.95
2023-01-02T21:31:23.451Z,2.03
2023-01-02T21:36:25.193Z,1.33
2023-01-02T21:41:45.113Z,2.50
2023-01-02T21:46:46.723Z,2.22
2023-01-02T21:51:48.201Z,2.00
2023-01-02T21:56:49.635Z,1.33
2023-01-02T22:01:54.921Z,1.77
2023-01-02T22:12:18.097Z,1.48
2023-01-02T22:17:19.578Z,1.35
2023-01-02T22:22:21.236Z,3.15
2023-01-02T22:27:23.198Z,1.35
2023-01-02T22:32:25.116Z,1.38
2023-01-02T22:37:26.939Z,1.50
2023-01-02T22:43:00.449Z,1.33
2023-01-02T22:48:05.979Z,1.88
2023-01-02T22:58:15.292Z,1.73
2023-01-02T23:03:17.597Z,1.55
2023-01-02T23:08:19.183Z,1.92
2023-01-02T23:13:20.971Z,1.55
2023-01-02T23:18:42.427Z,1.88
2023-01-02T23:23:43.970Z,1.25
2023-01-02T23:34:09.376Z,1.23
2023-01-02T23:39:13.962Z,1.40
2023-01-02T23:49:17.571Z,1.42
2023-01-02T23:54:20.153Z,1.80
2023-01-02T23:59:23.509Z,1.40
